NCAR-RAP Real-Time Weather Data

Output produced by METARs form (27 November 2014  12:52 UTC)
found at http://weather.rap.ucar.edu/surface/
 
Conditions at: KALB observed 27 November 2014  11:51 UTC
Temperature: -0.6°C (31°F)
Dewpoint: -3.3°C (26°F) [RH = 82%]
Pressure (altimeter): 29.97 inches Hg (1015.0 mb)
[Sea-level pressure: 1015.0 mb]
Winds: from the NNW (340 degrees) at 6 MPH (5 knots; 2.6 m/s)
Visibility: 10 or more miles (16+ km)
Ceiling: 2400 feet AGL
Clouds: few clouds at 800 feet AGL
overcast cloud deck at 2400 feet AGL
Present Weather: no significant weather observed at this time
KALB 271151Z 34005KT 10SM FEW008 OVC024 M01/M03 A2997 RMK AO2 SLP150 4/008 60002 70073 T10061033 11006 21017 52013

Conditions at: KALB observed 27 November 2014  10:51 UTC
Temperature: -1.1°C (30°F)
Dewpoint: -2.8°C (27°F) [RH = 88%]
Pressure (altimeter): 29.95 inches Hg (1014.3 mb)
[Sea-level pressure: 1014.4 mb]
Winds: from the NNW (340 degrees) at 6 MPH (5 knots; 2.6 m/s)
Visibility: 10 or more miles (16+ km)
Ceiling: 2400 feet AGL
Clouds: few clouds at 800 feet AGL
overcast cloud deck at 2400 feet AGL
Present Weather: no significant weather observed at this time
KALB 271051Z 34005KT 10SM FEW008 OVC024 M01/M03 A2995 RMK AO2 SNE30 SLP144 P0000 T10111028

Conditions at: KALB observed 27 November 2014  09:51 UTC
Temperature: -1.1°C (30°F)
Dewpoint: -3.3°C (26°F) [RH = 85%]
Pressure (altimeter): 29.95 inches Hg (1014.3 mb)
[Sea-level pressure: 1014.4 mb]
Winds: from the NW (320 degrees) at 7 MPH (6 knots; 3.1 m/s)
Visibility: 9 miles (14 km)
Ceiling: 2400 feet AGL
Clouds: few clouds at 800 feet AGL
overcast cloud deck at 2400 feet AGL
Present Weather: -SN  (light snow)
KALB 270951Z 32006KT 9SM -SN FEW008 OVC024 M01/M03 A2995 RMK AO2 SLP144 PCPN VRY LGT P0000 T10111033

Conditions at: KALB observed 27 November 2014  08:51 UTC
Temperature: -1.1°C (30°F)
Dewpoint: -2.8°C (27°F) [RH = 88%]
Pressure (altimeter): 29.93 inches Hg (1013.6 mb)
[Sea-level pressure: 1013.7 mb]
Winds: from the NNW (330 degrees) at 8 MPH (7 knots; 3.6 m/s)
Visibility: 10 or more miles (16+ km)
Ceiling: 1800 feet AGL
Clouds: few clouds at 800 feet AGL
broken clouds at 1800 feet AGL
broken clouds at 7000 feet AGL
Present Weather: -SN  (light snow)
KALB 270851Z 33007KT 10SM -SN FEW008 BKN018 BKN070 M01/M03 A2993 RMK AO2 SLP137 PCPN VRY LGT P0000 60002 T10111028 51006

Conditions at: KALB observed 27 November 2014  08:38 UTC
Temperature: -1.7°C (29°F)
Dewpoint: -2.8°C (27°F) [RH = 92%]
Pressure (altimeter): 29.92 inches Hg (1013.3 mb)
Winds: from the NNW (330 degrees) at 7 MPH (6 knots; 3.1 m/s)
Visibility: 7 miles (11 km)
Ceiling: 1800 feet AGL
Clouds: few clouds at 800 feet AGL
broken clouds at 1800 feet AGL
overcast cloud deck at 7000 feet AGL
Present Weather: -SN  (light snow)
KALB 270838Z 33006KT 7SM -SN FEW008 BKN018 OVC070 M02/M03 A2992 RMK AO2 PCPN VRY LGT P0000 T10171028

Conditions at: KALB observed 27 November 2014  07:51 UTC
Temperature: -1.1°C (30°F)
Dewpoint: -2.8°C (27°F) [RH = 88%]
Pressure (altimeter): 29.92 inches Hg (1013.3 mb)
[Sea-level pressure: 1013.5 mb]
Winds: from the NNW (340 degrees) at 12 MPH (10 knots; 5.2 m/s)
Visibility: 3 miles (5 km)
Ceiling: 3800 feet AGL
Clouds: few clouds at 800 feet AGL
overcast cloud deck at 3800 feet AGL
Present Weather: -SN BR  (light snow, mist)
KALB 270751Z 34010KT 3SM -SN BR FEW008 OVC038 M01/M03 A2992 RMK AO2 SFC VIS 4 SLP135 P0000 T10111028

Conditions at: KALB observed 27 November 2014  07:33 UTC
Temperature: -1.1°C (30°F)
Dewpoint: -2.8°C (27°F) [RH = 88%]
Pressure (altimeter): 29.92 inches Hg (1013.3 mb)
Winds: from the NNW (340 degrees) at 10 MPH (9 knots; 4.7 m/s)
Visibility: 3 miles (5 km)
Ceiling: 3800 feet AGL
Clouds: few clouds at 800 feet AGL
overcast cloud deck at 3800 feet AGL
Present Weather: -SN BR  (light snow, mist)
KALB 270733Z 34009KT 3SM -SN BR FEW008 OVC038 M01/M03 A2992 RMK AO2 FEW V SCT P0000 T10111028

Conditions at: KALB observed 27 November 2014  07:23 UTC
Temperature: -0.6°C (31°F)
Dewpoint: -2.8°C (27°F) [RH = 85%]
Pressure (altimeter): 29.92 inches Hg (1013.3 mb)
Winds: from the NNW (340 degrees) at 9 MPH (8 knots; 4.2 m/s)
Visibility: 2.50 miles (4.02 km)
Ceiling: 3400 feet AGL
Clouds: few clouds at 800 feet AGL
overcast cloud deck at 3400 feet AGL
Present Weather: -SN BR  (light snow, mist)
KALB 270723Z 34008KT 2 1/2SM -SN BR FEW008 OVC034 M01/M03 A2992 RMK AO2 FEW V SCT P0000 T10061028

Conditions at: KALB observed 27 November 2014  07:11 UTC
Temperature: -0.6°C (31°F)
Dewpoint: -2.8°C (27°F) [RH = 85%]
Pressure (altimeter): 29.92 inches Hg (1013.3 mb)
Winds: from the NNW (340 degrees) at 10 MPH (9 knots; 4.7 m/s)
Visibility: 1.50 miles (2.41 km)
Ceiling: 3100 feet AGL
Clouds: scattered clouds at 800 feet AGL
overcast cloud deck at 3100 feet AGL
Present Weather: -SN BR  (light snow, mist)
KALB 270711Z 34009KT 1 1/2SM -SN BR SCT008 OVC031 M01/M03 A2992 RMK AO2 SFC VIS 2 P0000 T10061028

Conditions at: KALB observed 27 November 2014  06:51 UTC
Temperature: -0.6°C (31°F)
Dewpoint: -2.2°C (28°F) [RH = 89%]
Pressure (altimeter): 29.92 inches Hg (1013.3 mb)
[Sea-level pressure: 1013.4 mb]
Winds: from the NNW (340 degrees) at 12 MPH (10 knots; 5.2 m/s)
Visibility: 1.50 miles (2.41 km)
Ceiling: 2500 feet AGL
Clouds: few clouds at 500 feet AGL
scattered clouds at 1000 feet AGL
overcast cloud deck at 2500 feet AGL
Present Weather: -SN BR  (light snow, mist)
KALB 270651Z 34010KT 1 1/2SM -SN BR FEW005 SCT010 OVC025 M01/M02 A2992 RMK AO2 SFC VIS 1 3/4 SLP134 VIS 1 1/2V2 P0002 T10061022

Conditions at: KALB observed 27 November 2014  06:23 UTC
Temperature: -0.6°C (31°F)
Dewpoint: -2.2°C (28°F) [RH = 89%]
Pressure (altimeter): 29.91 inches Hg (1013.0 mb)
Winds: from the NNW (340 degrees) at 9 MPH (8 knots; 4.2 m/s)
Visibility: 1.50 miles (2.41 km)
Ceiling: 1900 feet AGL
Clouds: few clouds at 500 feet AGL
scattered clouds at 1200 feet AGL
overcast cloud deck at 1900 feet AGL
Present Weather: -SN BR  (light snow, mist)
KALB 270623Z 34008KT 1 1/2SM -SN BR FEW005 SCT012 OVC019 M01/M02 A2991 RMK AO2 VIS 1 1/4V1 3/4 SCT012 V BKN P0001 T10061022

Conditions at: KALB observed 27 November 2014  06:11 UTC
Temperature: -0.6°C (31°F)
Dewpoint: -2.2°C (28°F) [RH = 89%]
Pressure (altimeter): 29.91 inches Hg (1013.0 mb)
Winds: from the NNW (330 degrees) at 9 MPH (8 knots; 4.2 m/s)
Visibility: 1.50 miles (2.41 km)
Ceiling: 1200 feet AGL
Clouds: scattered clouds at 700 feet AGL
broken clouds at 1200 feet AGL
overcast cloud deck at 1900 feet AGL
Present Weather: -SN BR  (light snow, mist)
KALB 270611Z 33008KT 1 1/2SM -SN BR SCT007 BKN012 OVC019 M01/M02 A2991 RMK AO2 VIS 1 1/4V1 3/4 SCT V BKN P0000 T10061022

Conditions at: KALB observed 27 November 2014  05:51 UTC
Temperature: -0.6°C (31°F)
Dewpoint: -2.2°C (28°F) [RH = 89%]
Pressure (altimeter): 29.91 inches Hg (1013.0 mb)
[Sea-level pressure: 1013.1 mb]
Winds: from the NNW (340 degrees) at 9 MPH (8 knots; 4.2 m/s)
Visibility: 1.25 miles (2.01 km)
Ceiling: 700 feet AGL
Clouds: broken clouds at 700 feet AGL
overcast cloud deck at 1200 feet AGL
Present Weather: -SN BR  (light snow, mist)
KALB 270551Z 34008KT 1 1/4SM -SN BR BKN007 OVC012 M01/M02 A2991 RMK AO2 TWR VIS 1 1/2 SLP131 BKN V SCT 4/009 P0002 60016 T10061022 10000 21006 55002

Conditions at: KALB observed 27 November 2014  05:28 UTC
Temperature: -0.6°C (31°F)
Dewpoint: -2.2°C (28°F) [RH = 89%]
Pressure (altimeter): 29.90 inches Hg (1012.6 mb)
Winds: from the NNW (340 degrees) at 10 MPH (9 knots; 4.7 m/s)
Visibility: 1.25 miles (2.01 km)
Ceiling: 700 feet AGL
Clouds: broken clouds at 700 feet AGL
overcast cloud deck at 1200 feet AGL
Present Weather: -SN BR  (light snow, mist)
KALB 270528Z 34009KT 1 1/4SM -SN BR BKN007 OVC012 M01/M02 A2990 RMK AO2 TWR VIS 1 1/2 P0002 T10061022

Conditions at: KALB observed 27 November 2014  04:51 UTC
Temperature: -0.6°C (31°F)
Dewpoint: -1.7°C (29°F) [RH = 92%]
Pressure (altimeter): 29.90 inches Hg (1012.6 mb)
[Sea-level pressure: 1012.9 mb]
Winds: from the NNW (340 degrees) at 10 MPH (9 knots; 4.7 m/s)
Visibility: 1.50 miles (2.41 km)
Ceiling: 1400 feet AGL
Clouds: scattered clouds at 800 feet AGL
overcast cloud deck at 1400 feet AGL
Present Weather: -SN BR  (light snow, mist)
KALB 270451Z 34009KT 1 1/2SM -SN BR SCT008 OVC014 M01/M02 A2990 RMK AO2 SLP129 P0002 T10061017 400501006

Conditions at: KALB observed 27 November 2014  04:12 UTC
Temperature: -0.6°C (31°F)
Dewpoint: -2.2°C (28°F) [RH = 89%]
Pressure (altimeter): 29.90 inches Hg (1012.6 mb)
Winds: from the N (350 degrees) at 10 MPH (9 knots; 4.7 m/s)
Visibility: 1.50 miles (2.41 km)
Ceiling: 1400 feet AGL
Clouds: scattered clouds at 600 feet AGL
broken clouds at 1400 feet AGL
overcast cloud deck at 2100 feet AGL
Present Weather: -SN BR  (light snow, mist)
KALB 270412Z 35009KT 1 1/2SM -SN BR SCT006 BKN014 OVC021 M01/M02 A2990 RMK AO2 P0001 T10061022

Conditions at: KALB observed 27 November 2014  03:51 UTC
Temperature: -0.6°C (31°F)
Dewpoint: -2.2°C (28°F) [RH = 89%]
Pressure (altimeter): 29.91 inches Hg (1013.0 mb)
[Sea-level pressure: 1013.0 mb]
Winds: from the N (350 degrees) at 12 MPH (10 knots; 5.2 m/s)
Visibility: 1.50 miles (2.41 km)
Ceiling: 600 feet AGL
Clouds: broken clouds at 600 feet AGL
overcast cloud deck at 1200 feet AGL
Present Weather: -SN BR  (light snow, mist)
KALB 270351Z COR 35010KT 1 1/2SM -SN BR BKN006 OVC012 M01/M02 A2991 RMK AO2 SLP130 P0002 T10061022

Conditions at: KALB observed 27 November 2014  02:51 UTC
Temperature: 0.0°C (32°F)
Dewpoint: -1.7°C (29°F) [RH = 88%]
Pressure (altimeter): 29.91 inches Hg (1013.0 mb)
[Sea-level pressure: 1013.3 mb]
Winds: from the N (350 degrees) at 10 MPH (9 knots; 4.7 m/s)
Visibility: 1.50 miles (2.41 km)
Ceiling: 600 feet AGL
Clouds: broken clouds at 600 feet AGL
overcast cloud deck at 1400 feet AGL
Present Weather: -SN BR  (light snow, mist)
KALB 270251Z 35009KT 1 1/2SM -SN BR BKN006 OVC014 00/M02 A2991 RMK AO2 SLP133 P0003 60010 T00001017 58009

Conditions at: KALB observed 27 November 2014  01:51 UTC
Temperature: 0.0°C (32°F)
Dewpoint: -1.7°C (29°F) [RH = 88%]
Pressure (altimeter): 29.93 inches Hg (1013.6 mb)
[Sea-level pressure: 1013.8 mb]
Winds: from the N (350 degrees) at 9 MPH (8 knots; 4.2 m/s)
Visibility: 1.50 miles (2.41 km)
Ceiling: 600 feet AGL
Clouds: broken clouds at 600 feet AGL
overcast cloud deck at 1400 feet AGL
Present Weather: -SN BR  (light snow, mist)
KALB 270151Z 35008KT 1 1/2SM -SN BR BKN006 OVC014 00/M02 A2993 RMK AO2 SFC VIS 2 SLP138 P0004 T00001017

Conditions at: KALB observed 27 November 2014  01:07 UTC
Temperature: 0.0°C (32°F)
Dewpoint: -1.1°C (30°F) [RH = 92%]
Pressure (altimeter): 29.95 inches Hg (1014.3 mb)
Winds: from the N (360 degrees) at 7 MPH (6 knots; 3.1 m/s)
Visibility: 2.00 miles (3.22 km)
Ceiling: 600 feet AGL
Clouds: broken clouds at 600 feet AGL
broken clouds at 1200 feet AGL
overcast cloud deck at 2300 feet AGL
Present Weather: -SN BR  (light snow, mist)
KALB 270107Z 36006KT 2SM -SN BR BKN006 BKN012 OVC023 00/M01 A2995 RMK AO2 P0001 T00001011